sensor_id;sensor_type;location;lat;lon;timestamp;P1;P2;P0
62846;PMS5003;49477;35.676;139.586;2023-05-16T00:01:37;11;11;
62846;PMS5003;49477;35.676;139.586;2023-05-16T00:04:06;10;9;
62846;PMS5003;49477;35.676;139.586;2023-05-16T00:06:35;10;10;
62846;PMS5003;49477;35.676;139.586;2023-05-16T00:09:04;13;10;
62846;PMS5003;49477;35.676;139.586;2023-05-16T00:11:34;9;8;
62846;PMS5003;49477;35.676;139.586;2023-05-16T00:14:03;8;8;
62846;PMS5003;49477;35.676;139.586;2023-05-16T00:16:33;17;12;
62846;PMS5003;49477;35.676;139.586;2023-05-16T00:19:02;10;9;
62846;PMS5003;49477;35.676;139.586;2023-05-16T00:21:32;11;11;
62846;PMS5003;49477;35.676;139.586;2023-05-16T00:24:01;11;10;
62846;PMS5003;49477;35.676;139.586;2023-05-16T00:26:30;10;10;
62846;PMS5003;49477;35.676;139.586;2023-05-16T00:29:00;12;9;
62846;PMS5003;49477;35.676;139.586;2023-05-16T00:31:29;14;14;
62846;PMS5003;49477;35.676;139.586;2023-05-16T00:33:58;10;10;
62846;PMS5003;49477;35.676;139.586;2023-05-16T00:36:28;11;9;
62846;PMS5003;49477;35.676;139.586;2023-05-16T00:38:57;11;8;
62846;PMS5003;49477;35.676;139.586;2023-05-16T00:41:30;11;11;
62846;PMS5003;49477;35.676;139.586;2023-05-16T00:43:59;10;10;
62846;PMS5003;49477;35.676;139.586;2023-05-16T00:46:29;11;11;
62846;PMS5003;49477;35.676;139.586;2023-05-16T00:48:58;11;11;
62846;PMS5003;49477;35.676;139.586;2023-05-16T00:51:28;12;11;
62846;PMS5003;49477;35.676;139.586;2023-05-16T00:53:57;13;12;
62846;PMS5003;49477;35.676;139.586;2023-05-16T00:56:26;14;13;
62846;PMS5003;49477;35.676;139.586;2023-05-16T00:58:55;14;12;
62846;PMS5003;49477;35.676;139.586;2023-05-16T01:01:25;17;14;
62846;PMS5003;49477;35.676;139.586;2023-05-16T01:03:55;12;10;
62846;PMS5003;49477;35.676;139.586;2023-05-16T01:06:25;12;11;
62846;PMS5003;49477;35.676;139.586;2023-05-16T01:08:54;16;14;
62846;PMS5003;49477;35.676;139.586;2023-05-16T01:11:26;11;11;
62846;PMS5003;49477;35.676;139.586;2023-05-16T01:14:04;16;14;
62846;PMS5003;49477;35.676;139.586;2023-05-16T01:16:45;15;12;
62846;PMS5003;49477;35.676;139.586;2023-05-16T01:19:25;15;14;
62846;PMS5003;49477;35.676;139.586;2023-05-16T01:22:15;17;13;
62846;PMS5003;49477;35.676;139.586;2023-05-16T01:24:55;14;12;
62846;PMS5003;49477;35.676;139.586;2023-05-16T01:27:38;10;10;
62846;PMS5003;49477;35.676;139.586;2023-05-16T01:30:15;9;9;
62846;PMS5003;49477;35.676;139.586;2023-05-16T01:32:45;20;15;
62846;PMS5003;49477;35.676;139.586;2023-05-16T01:35:15;14;13;
62846;PMS5003;49477;35.676;139.586;2023-05-16T01:37:47;14;11;
62846;PMS5003;49477;35.676;139.586;2023-05-16T01:40:23;14;10;
62846;PMS5003;49477;35.676;139.586;2023-05-16T01:43:01;10;10;
62846;PMS5003;49477;35.676;139.586;2023-05-16T01:45:38;12;12;
62846;PMS5003;49477;35.676;139.586;2023-05-16T01:48:15;13;13;
62846;PMS5003;49477;35.676;139.586;2023-05-16T01:50:49;12;12;
62846;PMS5003;49477;35.676;139.586;2023-05-16T01:53:24;9;8;
62846;PMS5003;49477;35.676;139.586;2023-05-16T01:55:56;15;11;
62846;PMS5003;49477;35.676;139.586;2023-05-16T01:58:30;12;12;
62846;PMS5003;49477;35.676;139.586;2023-05-16T02:01:03;14;11;
62846;PMS5003;49477;35.676;139.586;2023-05-16T02:03:33;16;12;
62846;PMS5003;49477;35.676;139.586;2023-05-16T02:06:02;16;15;
62846;PMS5003;49477;35.676;139.586;2023-05-16T02:08:32;12;12;
62846;PMS5003;49477;35.676;139.586;2023-05-16T02:11:01;15;12;
62846;PMS5003;49477;35.676;139.586;2023-05-16T02:13:30;15;14;
62846;PMS5003;49477;35.676;139.586;2023-05-16T02:16:00;11;11;
62846;PMS5003;49477;35.676;139.586;2023-05-16T02:18:29;15;12;
62846;PMS5003;49477;35.676;139.586;2023-05-16T02:20:58;12;11;
62846;PMS5003;49477;35.676;139.586;2023-05-16T02:23:27;13;11;
62846;PMS5003;49477;35.676;139.586;2023-05-16T02:25:56;18;14;
62846;PMS5003;49477;35.676;139.586;2023-05-16T02:28:25;10;10;
62846;PMS5003;49477;35.676;139.586;2023-05-16T02:30:56;14;11;
62846;PMS5003;49477;35.676;139.586;2023-05-16T02:33:25;12;12;
62846;PMS5003;49477;35.676;139.586;2023-05-16T02:35:55;10;9;
62846;PMS5003;49477;35.676;139.586;2023-05-16T02:38:24;10;9;
62846;PMS5003;49477;35.676;139.586;2023-05-16T02:40:55;11;11;
62846;PMS5003;49477;35.676;139.586;2023-05-16T02:43:24;11;11;
62846;PMS5003;49477;35.676;139.586;2023-05-16T02:45:53;13;11;
62846;PMS5003;49477;35.676;139.586;2023-05-16T02:48:22;12;11;
62846;PMS5003;49477;35.676;139.586;2023-05-16T02:50:52;12;10;
62846;PMS5003;49477;35.676;139.586;2023-05-16T02:53:21;14;13;
62846;PMS5003;49477;35.676;139.586;2023-05-16T02:55:50;11;11;
62846;PMS5003;49477;35.676;139.586;2023-05-16T02:58:20;13;13;
62846;PMS5003;49477;35.676;139.586;2023-05-16T03:00:49;11;11;
62846;PMS5003;49477;35.676;139.586;2023-05-16T03:03:19;12;10;
62846;PMS5003;49477;35.676;139.586;2023-05-16T03:05:49;12;9;
62846;PMS5003;49477;35.676;139.586;2023-05-16T03:08:18;11;8;
62846;PMS5003;49477;35.676;139.586;2023-05-16T03:10:48;11;11;
62846;PMS5003;49477;35.676;139.586;2023-05-16T03:13:17;8;8;
62846;PMS5003;49477;35.676;139.586;2023-05-16T03:15:46;12;12;
62846;PMS5003;49477;35.676;139.586;2023-05-16T03:18:16;11;10;
62846;PMS5003;49477;35.676;139.586;2023-05-16T03:20:45;9;9;
62846;PMS5003;49477;35.676;139.586;2023-05-16T03:23:15;13;9;
62846;PMS5003;49477;35.676;139.586;2023-05-16T03:25:45;13;11;
62846;PMS5003;49477;35.676;139.586;2023-05-16T03:28:15;14;14;
62846;PMS5003;49477;35.676;139.586;2023-05-16T03:30:44;15;14;
62846;PMS5003;49477;35.676;139.586;2023-05-16T03:33:14;10;9;
62846;PMS5003;49477;35.676;139.586;2023-05-16T03:35:44;16;12;
62846;PMS5003;49477;35.676;139.586;2023-05-16T03:38:13;13;12;
62846;PMS5003;49477;35.676;139.586;2023-05-16T03:40:43;11;11;
62846;PMS5003;49477;35.676;139.586;2023-05-16T03:43:12;9;9;
62846;PMS5003;49477;35.676;139.586;2023-05-16T03:45:42;9;8;
62846;PMS5003;49477;35.676;139.586;2023-05-16T03:48:10;12;10;
62846;PMS5003;49477;35.676;139.586;2023-05-16T03:50:40;12;11;
62846;PMS5003;49477;35.676;139.586;2023-05-16T03:53:09;13;11;
62846;PMS5003;49477;35.676;139.586;2023-05-16T03:55:39;11;11;
62846;PMS5003;49477;35.676;139.586;2023-05-16T03:58:08;9;8;
62846;PMS5003;49477;35.676;139.586;2023-05-16T04:00:38;10;10;
62846;PMS5003;49477;35.676;139.586;2023-05-16T04:03:07;10;9;
62846;PMS5003;49477;35.676;139.586;2023-05-16T04:05:37;11;11;
62846;PMS5003;49477;35.676;139.586;2023-05-16T04:08:06;10;10;
62846;PMS5003;49477;35.676;139.586;2023-05-16T04:10:35;11;9;
62846;PMS5003;49477;35.676;139.586;2023-05-16T04:13:05;12;9;
62846;PMS5003;49477;35.676;139.586;2023-05-16T04:15:34;8;8;
62846;PMS5003;49477;35.676;139.586;2023-05-16T04:18:03;11;10;
62846;PMS5003;49477;35.676;139.586;2023-05-16T04:20:33;13;13;
62846;PMS5003;49477;35.676;139.586;2023-05-16T04:23:02;10;10;
62846;PMS5003;49477;35.676;139.586;2023-05-16T04:25:32;10;9;
62846;PMS5003;49477;35.676;139.586;2023-05-16T04:28:01;12;11;
62846;PMS5003;49477;35.676;139.586;2023-05-16T04:30:31;13;11;
62846;PMS5003;49477;35.676;139.586;2023-05-16T04:33:00;12;11;
62846;PMS5003;49477;35.676;139.586;2023-05-16T04:35:30;16;13;
62846;PMS5003;49477;35.676;139.586;2023-05-16T04:37:58;10;10;
62846;PMS5003;49477;35.676;139.586;2023-05-16T04:40:28;9;9;
62846;PMS5003;49477;35.676;139.586;2023-05-16T04:42:57;8;8;
62846;PMS5003;49477;35.676;139.586;2023-05-16T04:45:27;9;8;
62846;PMS5003;49477;35.676;139.586;2023-05-16T04:47:56;9;8;
62846;PMS5003;49477;35.676;139.586;2023-05-16T04:50:26;8;8;
62846;PMS5003;49477;35.676;139.586;2023-05-16T04:52:56;11;10;
62846;PMS5003;49477;35.676;139.586;2023-05-16T04:55:25;12;10;
62846;PMS5003;49477;35.676;139.586;2023-05-16T04:57:54;10;10;
62846;PMS5003;49477;35.676;139.586;2023-05-16T05:00:24;11;10;
62846;PMS5003;49477;35.676;139.586;2023-05-16T05:02:53;8;7;
62846;PMS5003;49477;35.676;139.586;2023-05-16T05:05:22;9;9;
62846;PMS5003;49477;35.676;139.586;2023-05-16T05:07:52;12;10;
62846;PMS5003;49477;35.676;139.586;2023-05-16T05:10:21;7;7;
62846;PMS5003;49477;35.676;139.586;2023-05-16T05:12:51;9;9;
62846;PMS5003;49477;35.676;139.586;2023-05-16T05:15:20;9;8;
62846;PMS5003;49477;35.676;139.586;2023-05-16T05:17:50;10;9;
62846;PMS5003;49477;35.676;139.586;2023-05-16T05:20:19;12;10;
62846;PMS5003;49477;35.676;139.586;2023-05-16T05:22:49;10;9;
62846;PMS5003;49477;35.676;139.586;2023-05-16T05:25:18;8;8;
62846;PMS5003;49477;35.676;139.586;2023-05-16T05:27:48;10;9;
62846;PMS5003;49477;35.676;139.586;2023-05-16T05:30:17;10;9;
62846;PMS5003;49477;35.676;139.586;2023-05-16T05:32:47;9;9;
62846;PMS5003;49477;35.676;139.586;2023-05-16T05:35:16;10;10;
62846;PMS5003;49477;35.676;139.586;2023-05-16T05:37:46;12;12;
62846;PMS5003;49477;35.676;139.586;2023-05-16T05:40:15;11;11;
62846;PMS5003;49477;35.676;139.586;2023-05-16T05:42:44;10;10;
62846;PMS5003;49477;35.676;139.586;2023-05-16T05:45:14;13;10;
62846;PMS5003;49477;35.676;139.586;2023-05-16T05:47:43;11;9;
62846;PMS5003;49477;35.676;139.586;2023-05-16T05:50:13;14;9;
62846;PMS5003;49477;35.676;139.586;2023-05-16T05:52:42;13;12;
62846;PMS5003;49477;35.676;139.586;2023-05-16T05:55:12;11;11;
62846;PMS5003;49477;35.676;139.586;2023-05-16T05:57:41;13;12;
62846;PMS5003;49477;35.676;139.586;2023-05-16T06:00:11;12;11;
62846;PMS5003;49477;35.676;139.586;2023-05-16T06:02:41;10;10;
62846;PMS5003;49477;35.676;139.586;2023-05-16T06:05:10;11;11;
62846;PMS5003;49477;35.676;139.586;2023-05-16T06:07:40;10;10;
62846;PMS5003;49477;35.676;139.586;2023-05-16T06:10:09;10;9;
62846;PMS5003;49477;35.676;139.586;2023-05-16T06:12:38;10;10;
62846;PMS5003;49477;35.676;139.586;2023-05-16T06:15:08;10;10;
62846;PMS5003;49477;35.676;139.586;2023-05-16T06:17:37;12;10;
62846;PMS5003;49477;35.676;139.586;2023-05-16T06:20:07;9;9;
62846;PMS5003;49477;35.676;139.586;2023-05-16T06:22:37;16;12;
62846;PMS5003;49477;35.676;139.586;2023-05-16T06:25:06;9;9;
62846;PMS5003;49477;35.676;139.586;2023-05-16T06:27:36;12;11;
62846;PMS5003;49477;35.676;139.586;2023-05-16T06:30:05;11;11;
62846;PMS5003;49477;35.676;139.586;2023-05-16T06:32:35;11;10;
62846;PMS5003;49477;35.676;139.586;2023-05-16T06:35:05;10;10;
62846;PMS5003;49477;35.676;139.586;2023-05-16T06:37:34;13;10;
62846;PMS5003;49477;35.676;139.586;2023-05-16T06:40:04;12;11;
62846;PMS5003;49477;35.676;139.586;2023-05-16T06:42:34;11;11;
62846;PMS5003;49477;35.676;139.586;2023-05-16T06:45:04;11;11;
62846;PMS5003;49477;35.676;139.586;2023-05-16T06:47:33;10;10;
62846;PMS5003;49477;35.676;139.586;2023-05-16T06:50:03;12;11;
62846;PMS5003;49477;35.676;139.586;2023-05-16T06:52:33;9;9;
62846;PMS5003;49477;35.676;139.586;2023-05-16T06:55:02;13;10;
62846;PMS5003;49477;35.676;139.586;2023-05-16T06:57:33;9;9;
62846;PMS5003;49477;35.676;139.586;2023-05-16T07:00:02;10;9;
62846;PMS5003;49477;35.676;139.586;2023-05-16T07:02:32;12;11;
62846;PMS5003;49477;35.676;139.586;2023-05-16T07:05:02;10;10;
62846;PMS5003;49477;35.676;139.586;2023-05-16T07:07:33;11;11;
62846;PMS5003;49477;35.676;139.586;2023-05-16T07:10:02;12;12;
62846;PMS5003;49477;35.676;139.586;2023-05-16T07:12:32;11;10;
62846;PMS5003;49477;35.676;139.586;2023-05-16T07:15:02;14;11;
62846;PMS5003;49477;35.676;139.586;2023-05-16T07:17:32;11;11;
62846;PMS5003;49477;35.676;139.586;2023-05-16T07:20:02;15;13;
62846;PMS5003;49477;35.676;139.586;2023-05-16T07:22:31;12;12;
62846;PMS5003;49477;35.676;139.586;2023-05-16T07:25:00;16;12;
62846;PMS5003;49477;35.676;139.586;2023-05-16T07:27:29;9;9;
62846;PMS5003;49477;35.676;139.586;2023-05-16T07:29:59;14;13;
62846;PMS5003;49477;35.676;139.586;2023-05-16T07:32:29;12;10;
62846;PMS5003;49477;35.676;139.586;2023-05-16T07:34:58;10;10;
62846;PMS5003;49477;35.676;139.586;2023-05-16T07:37:28;14;14;
62846;PMS5003;49477;35.676;139.586;2023-05-16T07:39:56;10;10;
62846;PMS5003;49477;35.676;139.586;2023-05-16T07:42:26;11;11;
62846;PMS5003;49477;35.676;139.586;2023-05-16T07:44:55;13;11;
62846;PMS5003;49477;35.676;139.586;2023-05-16T07:47:29;8;8;
62846;PMS5003;49477;35.676;139.586;2023-05-16T07:49:58;13;13;
62846;PMS5003;49477;35.676;139.586;2023-05-16T07:52:27;14;11;
62846;PMS5003;49477;35.676;139.586;2023-05-16T07:54:57;11;11;
62846;PMS5003;49477;35.676;139.586;2023-05-16T07:57:26;12;11;
62846;PMS5003;49477;35.676;139.586;2023-05-16T07:59:55;13;13;
62846;PMS5003;49477;35.676;139.586;2023-05-16T08:02:25;13;10;
62846;PMS5003;49477;35.676;139.586;2023-05-16T08:04:54;12;10;
62846;PMS5003;49477;35.676;139.586;2023-05-16T08:07:24;10;10;
62846;PMS5003;49477;35.676;139.586;2023-05-16T08:09:53;11;10;
62846;PMS5003;49477;35.676;139.586;2023-05-16T08:12:24;14;13;
62846;PMS5003;49477;35.676;139.586;2023-05-16T08:14:53;13;13;
62846;PMS5003;49477;35.676;139.586;2023-05-16T08:17:23;12;12;
62846;PMS5003;49477;35.676;139.586;2023-05-16T08:19:51;11;11;
62846;PMS5003;49477;35.676;139.586;2023-05-16T08:22:21;11;11;
62846;PMS5003;49477;35.676;139.586;2023-05-16T08:24:50;15;13;
62846;PMS5003;49477;35.676;139.586;2023-05-16T08:27:19;13;13;
62846;PMS5003;49477;35.676;139.586;2023-05-16T08:29:49;11;11;
62846;PMS5003;49477;35.676;139.586;2023-05-16T08:32:18;12;11;
62846;PMS5003;49477;35.676;139.586;2023-05-16T08:34:49;12;12;
62846;PMS5003;49477;35.676;139.586;2023-05-16T08:37:24;12;9;
62846;PMS5003;49477;35.676;139.586;2023-05-16T08:39:53;10;9;
62846;PMS5003;49477;35.676;139.586;2023-05-16T08:42:22;13;13;
62846;PMS5003;49477;35.676;139.586;2023-05-16T08:44:51;11;11;
62846;PMS5003;49477;35.676;139.586;2023-05-16T08:47:27;17;16;
62846;PMS5003;49477;35.676;139.586;2023-05-16T08:49:59;13;13;
62846;PMS5003;49477;35.676;139.586;2023-05-16T08:52:30;15;12;
62846;PMS5003;49477;35.676;139.586;2023-05-16T08:55:00;12;11;
62846;PMS5003;49477;35.676;139.586;2023-05-16T08:57:30;14;13;
62846;PMS5003;49477;35.676;139.586;2023-05-16T09:00:00;12;11;
62846;PMS5003;49477;35.676;139.586;2023-05-16T09:02:30;17;11;
62846;PMS5003;49477;35.676;139.586;2023-05-16T09:04:59;12;10;
62846;PMS5003;49477;35.676;139.586;2023-05-16T09:07:29;12;10;
62846;PMS5003;49477;35.676;139.586;2023-05-16T09:09:59;12;11;
62846;PMS5003;49477;35.676;139.586;2023-05-16T09:12:28;10;10;
62846;PMS5003;49477;35.676;139.586;2023-05-16T09:14:58;11;10;
62846;PMS5003;49477;35.676;139.586;2023-05-16T09:17:34;11;11;
62846;PMS5003;49477;35.676;139.586;2023-05-16T09:20:09;12;10;
62846;PMS5003;49477;35.676;139.586;2023-05-16T09:22:48;10;10;
62846;PMS5003;49477;35.676;139.586;2023-05-16T09:25:19;10;9;
62846;PMS5003;49477;35.676;139.586;2023-05-16T09:27:48;10;9;
62846;PMS5003;49477;35.676;139.586;2023-05-16T09:30:20;13;11;
62846;PMS5003;49477;35.676;139.586;2023-05-16T09:32:53;12;11;
62846;PMS5003;49477;35.676;139.586;2023-05-16T09:35:23;15;11;
62846;PMS5003;49477;35.676;139.586;2023-05-16T09:37:52;11;11;
62846;PMS5003;49477;35.676;139.586;2023-05-16T09:40:21;10;10;
62846;PMS5003;49477;35.676;139.586;2023-05-16T09:42:56;10;10;
62846;PMS5003;49477;35.676;139.586;2023-05-16T09:45:30;13;12;
62846;PMS5003;49477;35.676;139.586;2023-05-16T09:48:01;8;8;
62846;PMS5003;49477;35.676;139.586;2023-05-16T09:50:33;10;9;
62846;PMS5003;49477;35.676;139.586;2023-05-16T09:53:03;16;13;
62846;PMS5003;49477;35.676;139.586;2023-05-16T09:55:32;10;9;
62846;PMS5003;49477;35.676;139.586;2023-05-16T09:58:02;16;14;
62846;PMS5003;49477;35.676;139.586;2023-05-16T10:00:31;10;9;
62846;PMS5003;49477;35.676;139.586;2023-05-16T10:03:01;15;12;
62846;PMS5003;49477;35.676;139.586;2023-05-16T10:05:31;13;11;
62846;PMS5003;49477;35.676;139.586;2023-05-16T10:08:01;9;9;
62846;PMS5003;49477;35.676;139.586;2023-05-16T10:10:32;10;10;
62846;PMS5003;49477;35.676;139.586;2023-05-16T10:13:05;11;10;
62846;PMS5003;49477;35.676;139.586;2023-05-16T10:15:37;9;9;
62846;PMS5003;49477;35.676;139.586;2023-05-16T10:18:07;7;7;
62846;PMS5003;49477;35.676;139.586;2023-05-16T10:20:39;12;10;
62846;PMS5003;49477;35.676;139.586;2023-05-16T10:23:12;12;11;
62846;PMS5003;49477;35.676;139.586;2023-05-16T10:25:44;11;8;
62846;PMS5003;49477;35.676;139.586;2023-05-16T10:28:15;13;10;
62846;PMS5003;49477;35.676;139.586;2023-05-16T10:30:45;12;8;
62846;PMS5003;49477;35.676;139.586;2023-05-16T10:33:15;8;8;
62846;PMS5003;49477;35.676;139.586;2023-05-16T10:35:45;10;8;
62846;PMS5003;49477;35.676;139.586;2023-05-16T10:38:15;12;9;
62846;PMS5003;49477;35.676;139.586;2023-05-16T10:40:46;10;10;
62846;PMS5003;49477;35.676;139.586;2023-05-16T10:43:24;11;10;
62846;PMS5003;49477;35.676;139.586;2023-05-16T10:45:56;12;9;
62846;PMS5003;49477;35.676;139.586;2023-05-16T10:48:30;9;8;
62846;PMS5003;49477;35.676;139.586;2023-05-16T10:51:02;9;8;
62846;PMS5003;49477;35.676;139.586;2023-05-16T10:54:03;8;8;
62846;PMS5003;49477;35.676;139.586;2023-05-16T10:56:35;9;9;
62846;PMS5003;49477;35.676;139.586;2023-05-16T10:59:04;9;8;
62846;PMS5003;49477;35.676;139.586;2023-05-16T11:01:52;10;9;
62846;PMS5003;49477;35.676;139.586;2023-05-16T11:04:21;9;9;
62846;PMS5003;49477;35.676;139.586;2023-05-16T11:06:51;11;11;
62846;PMS5003;49477;35.676;139.586;2023-05-16T11:09:22;10;10;
62846;PMS5003;49477;35.676;139.586;2023-05-16T11:11:54;11;8;
62846;PMS5003;49477;35.676;139.586;2023-05-16T11:14:26;12;10;
62846;PMS5003;49477;35.676;139.586;2023-05-16T11:16:59;12;12;
62846;PMS5003;49477;35.676;139.586;2023-05-16T11:19:34;12;10;
62846;PMS5003;49477;35.676;139.586;2023-05-16T11:22:09;8;7;
62846;PMS5003;49477;35.676;139.586;2023-05-16T11:24:47;12;10;
62846;PMS5003;49477;35.676;139.586;2023-05-16T11:27:20;14;12;
62846;PMS5003;49477;35.676;139.586;2023-05-16T11:29:51;15;10;
62846;PMS5003;49477;35.676;139.586;2023-05-16T11:32:21;10;10;
62846;PMS5003;49477;35.676;139.586;2023-05-16T11:34:51;19;17;
62846;PMS5003;49477;35.676;139.586;2023-05-16T11:37:20;16;12;
62846;PMS5003;49477;35.676;139.586;2023-05-16T11:39:50;12;11;
62846;PMS5003;49477;35.676;139.586;2023-05-16T11:42:19;11;11;
62846;PMS5003;49477;35.676;139.586;2023-05-16T11:44:48;11;11;
62846;PMS5003;49477;35.676;139.586;2023-05-16T11:47:30;17;13;
62846;PMS5003;49477;35.676;139.586;2023-05-16T11:49:59;17;15;
62846;PMS5003;49477;35.676;139.586;2023-05-16T11:52:30;12;11;
62846;PMS5003;49477;35.676;139.586;2023-05-16T11:54:59;12;9;
62846;PMS5003;49477;35.676;139.586;2023-05-16T11:57:28;9;9;
62846;PMS5003;49477;35.676;139.586;2023-05-16T12:00:01;13;10;
62846;PMS5003;49477;35.676;139.586;2023-05-16T12:02:31;13;10;
62846;PMS5003;49477;35.676;139.586;2023-05-16T12:05:05;12;11;
62846;PMS5003;49477;35.676;139.586;2023-05-16T12:07:35;14;14;
62846;PMS5003;49477;35.676;139.586;2023-05-16T12:10:05;11;11;
62846;PMS5003;49477;35.676;139.586;2023-05-16T12:12:36;12;10;
62846;PMS5003;49477;35.676;139.586;2023-05-16T12:15:07;12;10;
62846;PMS5003;49477;35.676;139.586;2023-05-16T12:17:39;9;9;
62846;PMS5003;49477;35.676;139.586;2023-05-16T12:20:09;17;14;
62846;PMS5003;49477;35.676;139.586;2023-05-16T12:22:39;16;12;
62846;PMS5003;49477;35.676;139.586;2023-05-16T12:25:27;19;16;
62846;PMS5003;49477;35.676;139.586;2023-05-16T12:27:58;19;16;
62846;PMS5003;49477;35.676;139.586;2023-05-16T12:30:29;12;10;
62846;PMS5003;49477;35.676;139.586;2023-05-16T12:32:59;15;14;
62846;PMS5003;49477;35.676;139.586;2023-05-16T12:35:30;13;13;
62846;PMS5003;49477;35.676;139.586;2023-05-16T12:38:01;17;16;
62846;PMS5003;49477;35.676;139.586;2023-05-16T12:40:31;21;17;
62846;PMS5003;49477;35.676;139.586;2023-05-16T12:43:03;10;10;
62846;PMS5003;49477;35.676;139.586;2023-05-16T12:45:38;15;14;
62846;PMS5003;49477;35.676;139.586;2023-05-16T12:48:11;15;14;
62846;PMS5003;49477;35.676;139.586;2023-05-16T12:50:40;14;14;
62846;PMS5003;49477;35.676;139.586;2023-05-16T12:53:10;14;13;
62846;PMS5003;49477;35.676;139.586;2023-05-16T12:55:40;17;14;
62846;PMS5003;49477;35.676;139.586;2023-05-16T12:58:10;17;14;
62846;PMS5003;49477;35.676;139.586;2023-05-16T13:00:39;17;16;
62846;PMS5003;49477;35.676;139.586;2023-05-16T13:03:09;22;18;
62846;PMS5003;49477;35.676;139.586;2023-05-16T13:05:38;18;16;
62846;PMS5003;49477;35.676;139.586;2023-05-16T13:08:07;14;14;
62846;PMS5003;49477;35.676;139.586;2023-05-16T13:10:37;18;15;
62846;PMS5003;49477;35.676;139.586;2023-05-16T13:13:06;19;16;
62846;PMS5003;49477;35.676;139.586;2023-05-16T13:15:36;16;16;
62846;PMS5003;49477;35.676;139.586;2023-05-16T13:18:05;16;15;
62846;PMS5003;49477;35.676;139.586;2023-05-16T13:20:34;19;16;
62846;PMS5003;49477;35.676;139.586;2023-05-16T13:23:04;15;15;
62846;PMS5003;49477;35.676;139.586;2023-05-16T13:25:33;16;16;
62846;PMS5003;49477;35.676;139.586;2023-05-16T13:28:03;20;15;
62846;PMS5003;49477;35.676;139.586;2023-05-16T13:30:33;20;17;
62846;PMS5003;49477;35.676;139.586;2023-05-16T13:33:02;21;19;
62846;PMS5003;49477;35.676;139.586;2023-05-16T13:35:32;21;18;
62846;PMS5003;49477;35.676;139.586;2023-05-16T13:38:01;17;17;
62846;PMS5003;49477;35.676;139.586;2023-05-16T13:40:30;21;18;
62846;PMS5003;49477;35.676;139.586;2023-05-16T13:42:59;18;18;
62846;PMS5003;49477;35.676;139.586;2023-05-16T13:45:29;15;15;
62846;PMS5003;49477;35.676;139.586;2023-05-16T13:47:58;24;18;
62846;PMS5003;49477;35.676;139.586;2023-05-16T13:50:27;14;14;
62846;PMS5003;49477;35.676;139.586;2023-05-16T13:52:57;17;17;
62846;PMS5003;49477;35.676;139.586;2023-05-16T13:55:26;19;18;
62846;PMS5003;49477;35.676;139.586;2023-05-16T13:57:55;21;19;
62846;PMS5003;49477;35.676;139.586;2023-05-16T14:00:25;24;21;
62846;PMS5003;49477;35.676;139.586;2023-05-16T14:02:54;21;17;
62846;PMS5003;49477;35.676;139.586;2023-05-16T14:05:24;16;15;
62846;PMS5003;49477;35.676;139.586;2023-05-16T14:07:53;15;12;
62846;PMS5003;49477;35.676;139.586;2023-05-16T14:10:22;22;19;
62846;PMS5003;49477;35.676;139.586;2023-05-16T14:12:52;19;17;
62846;PMS5003;49477;35.676;139.586;2023-05-16T14:15:21;15;15;
62846;PMS5003;49477;35.676;139.586;2023-05-16T14:17:51;25;19;
62846;PMS5003;49477;35.676;139.586;2023-05-16T14:20:20;18;16;
62846;PMS5003;49477;35.676;139.586;2023-05-16T14:22:50;22;20;
62846;PMS5003;49477;35.676;139.586;2023-05-16T14:25:19;21;17;
62846;PMS5003;49477;35.676;139.586;2023-05-16T14:27:49;19;19;
62846;PMS5003;49477;35.676;139.586;2023-05-16T14:30:18;21;16;
62846;PMS5003;49477;35.676;139.586;2023-05-16T14:32:47;22;18;
62846;PMS5003;49477;35.676;139.586;2023-05-16T14:35:17;20;17;
62846;PMS5003;49477;35.676;139.586;2023-05-16T14:37:46;16;16;
62846;PMS5003;49477;35.676;139.586;2023-05-16T14:40:15;17;17;
62846;PMS5003;49477;35.676;139.586;2023-05-16T14:42:45;20;17;
62846;PMS5003;49477;35.676;139.586;2023-05-16T14:45:14;20;20;
62846;PMS5003;49477;35.676;139.586;2023-05-16T14:47:43;19;17;
62846;PMS5003;49477;35.676;139.586;2023-05-16T14:50:12;20;18;
62846;PMS5003;49477;35.676;139.586;2023-05-16T14:52:42;18;17;
62846;PMS5003;49477;35.676;139.586;2023-05-16T14:55:11;22;19;
62846;PMS5003;49477;35.676;139.586;2023-05-16T14:57:41;21;17;
62846;PMS5003;49477;35.676;139.586;2023-05-16T15:00:13;20;20;
62846;PMS5003;49477;35.676;139.586;2023-05-16T15:02:43;18;18;
62846;PMS5003;49477;35.676;139.586;2023-05-16T15:05:11;20;16;
62846;PMS5003;49477;35.676;139.586;2023-05-16T15:07:41;21;17;
62846;PMS5003;49477;35.676;139.586;2023-05-16T15:10:11;17;15;
62846;PMS5003;49477;35.676;139.586;2023-05-16T15:12:41;18;18;
62846;PMS5003;49477;35.676;139.586;2023-05-16T15:15:11;17;17;
62846;PMS5003;49477;35.676;139.586;2023-05-16T15:17:40;21;17;
62846;PMS5003;49477;35.676;139.586;2023-05-16T15:20:10;15;15;
62846;PMS5003;49477;35.676;139.586;2023-05-16T15:22:45;21;18;
62846;PMS5003;49477;35.676;139.586;2023-05-16T15:25:14;14;13;
62846;PMS5003;49477;35.676;139.586;2023-05-16T15:27:43;18;17;
62846;PMS5003;49477;35.676;139.586;2023-05-16T15:30:12;16;16;
62846;PMS5003;49477;35.676;139.586;2023-05-16T15:32:42;16;15;
62846;PMS5003;49477;35.676;139.586;2023-05-16T15:35:11;21;18;
62846;PMS5003;49477;35.676;139.586;2023-05-16T15:37:41;20;16;
62846;PMS5003;49477;35.676;139.586;2023-05-16T15:40:10;15;15;
62846;PMS5003;49477;35.676;139.586;2023-05-16T15:42:40;17;16;
62846;PMS5003;49477;35.676;139.586;2023-05-16T15:45:10;17;16;
62846;PMS5003;49477;35.676;139.586;2023-05-16T15:47:40;16;14;
62846;PMS5003;49477;35.676;139.586;2023-05-16T15:50:10;18;16;
62846;PMS5003;49477;35.676;139.586;2023-05-16T15:52:39;13;13;
62846;PMS5003;49477;35.676;139.586;2023-05-16T15:55:08;20;18;
62846;PMS5003;49477;35.676;139.586;2023-05-16T15:57:37;22;16;
62846;PMS5003;49477;35.676;139.586;2023-05-16T16:00:07;16;16;
62846;PMS5003;49477;35.676;139.586;2023-05-16T16:02:37;20;15;
62846;PMS5003;49477;35.676;139.586;2023-05-16T16:05:07;17;17;
62846;PMS5003;49477;35.676;139.586;2023-05-16T16:07:37;16;14;
62846;PMS5003;49477;35.676;139.586;2023-05-16T16:10:07;16;16;
62846;PMS5003;49477;35.676;139.586;2023-05-16T16:12:38;17;14;